sensor_id;sensor_type;location;lat;lon;timestamp;pressure;altitude;pressure_sealevel;temperature;humidity
74561;BME280;62979;55.720;37.606;2023-10-19T00:00:30;98763.53;;;6.70;70.69
74561;BME280;62979;55.720;37.606;2023-10-19T00:02:59;98749.06;;;6.60;70.51
74561;BME280;62979;55.720;37.606;2023-10-19T00:05:28;98749.91;;;6.60;70.60
74561;BME280;62979;55.720;37.606;2023-10-19T00:07:56;98749.78;;;6.67;71.00
74561;BME280;62979;55.720;37.606;2023-10-19T00:10:25;98751.56;;;6.63;70.54
74561;BME280;62979;55.720;37.606;2023-10-19T00:12:58;98751.69;;;6.58;70.23
74561;BME280;62979;55.720;37.606;2023-10-19T00:15:26;98752.56;;;6.59;70.49
74561;BME280;62979;55.720;37.606;2023-10-19T00:17:57;98756.84;;;6.60;70.19
74561;BME280;62979;55.720;37.606;2023-10-19T00:20:30;98753.53;;;6.53;70.80
74561;BME280;62979;55.720;37.606;2023-10-19T00:23:15;98751.69;;;6.58;70.51
74561;BME280;62979;55.720;37.606;2023-10-19T00:25:44;98745.72;;;6.55;70.13
74561;BME280;62979;55.720;37.606;2023-10-19T00:28:16;98756.75;;;6.63;70.09
74561;BME280;62979;55.720;37.606;2023-10-19T00:30:42;98754.13;;;6.66;69.88
74561;BME280;62979;55.720;37.606;2023-10-19T00:33:10;98747.28;;;6.62;69.90
74561;BME280;62979;55.720;37.606;2023-10-19T00:35:43;98750.72;;;6.62;69.73
74561;BME280;62979;55.720;37.606;2023-10-19T00:38:17;98747.13;;;6.68;69.91
74561;BME280;62979;55.720;37.606;2023-10-19T00:40:53;98750.69;;;6.64;69.83
74561;BME280;62979;55.720;37.606;2023-10-19T00:43:28;98751.69;;;6.58;69.99
74561;BME280;62979;55.720;37.606;2023-10-19T00:45:58;98747.28;;;6.62;69.77
74561;BME280;62979;55.720;37.606;2023-10-19T00:48:27;98742.09;;;6.62;69.79
74561;BME280;62979;55.720;37.606;2023-10-19T00:50:54;98741.31;;;6.58;69.81
74561;BME280;62979;55.720;37.606;2023-10-19T00:53:35;98749.78;;;6.67;69.90
74561;BME280;62979;55.720;37.606;2023-10-19T00:56:07;98750.78;;;6.61;69.75
74561;BME280;62979;55.720;37.606;2023-10-19T00:58:37;98749.91;;;6.60;69.71
74561;BME280;62979;55.720;37.606;2023-10-19T01:01:06;98755.72;;;6.70;69.92
74561;BME280;62979;55.720;37.606;2023-10-19T01:03:34;98752.09;;;6.77;69.60
74561;BME280;62979;55.720;37.606;2023-10-19T01:06:04;98752.03;;;6.80;69.60
74561;BME280;62979;55.720;37.606;2023-10-19T01:08:37;98747.63;;;6.82;69.21
74561;BME280;62979;55.720;37.606;2023-10-19T01:11:11;98737.44;;;6.75;69.42
74561;BME280;62979;55.720;37.606;2023-10-19T01:13:41;98746.75;;;6.83;69.48
74561;BME280;62979;55.720;37.606;2023-10-19T01:16:12;98745.28;;;6.73;68.93
74561;BME280;62979;55.720;37.606;2023-10-19T01:18:46;98742.78;;;6.69;68.79
74561;BME280;62979;55.720;37.606;2023-10-19T01:21:13;98744.56;;;6.67;68.99
74561;BME280;62979;55.720;37.606;2023-10-19T01:23:46;98743.72;;;6.66;69.23
74561;BME280;62979;55.720;37.606;2023-10-19T01:26:14;98739.59;;;6.57;69.56
74561;BME280;62979;55.720;37.606;2023-10-19T01:28:47;98740.41;;;6.59;69.46
74561;BME280;62979;55.720;37.606;2023-10-19T01:31:17;98736.03;;;6.61;69.46
74561;BME280;62979;55.720;37.606;2023-10-19T01:34:03;98742.97;;;6.61;69.34
74561;BME280;62979;55.720;37.606;2023-10-19T01:36:31;98739.41;;;6.65;69.26
74561;BME280;62979;55.720;37.606;2023-10-19T01:39:04;98735.97;;;6.63;69.00
74561;BME280;62979;55.720;37.606;2023-10-19T01:41:35;98742.75;;;6.70;69.00
74561;BME280;62979;55.720;37.606;2023-10-19T01:44:02;98741.06;;;6.68;68.80
74561;BME280;62979;55.720;37.606;2023-10-19T01:46:30;98746.50;;;6.58;68.82
74561;BME280;62979;55.720;37.606;2023-10-19T01:48:59;98745.59;;;6.61;68.67
74561;BME280;62979;55.720;37.606;2023-10-19T01:51:29;98727.69;;;6.49;68.83
74561;BME280;62979;55.720;37.606;2023-10-19T01:53:58;98744.75;;;6.59;69.30
74561;BME280;62979;55.720;37.606;2023-10-19T01:56:27;98738.56;;;6.63;69.54
74561;BME280;62979;55.720;37.606;2023-10-19T01:58:54;98730.78;;;6.63;70.26
74561;BME280;62979;55.720;37.606;2023-10-19T02:01:22;98739.28;;;6.70;69.32
74561;BME280;62979;55.720;37.606;2023-10-19T02:03:55;98739.22;;;6.73;69.13
74561;BME280;62979;55.720;37.606;2023-10-19T02:06:24;98740.81;;;6.78;69.18
74561;BME280;62979;55.720;37.606;2023-10-19T02:08:55;98732.25;;;6.75;69.02
74561;BME280;62979;55.720;37.606;2023-10-19T02:11:27;98724.56;;;6.70;69.46
74561;BME280;62979;55.720;37.606;2023-10-19T02:13:56;98738.22;;;6.78;69.01
74561;BME280;62979;55.720;37.606;2023-10-19T02:16:25;98733.72;;;6.85;69.66
74561;BME280;62979;55.720;37.606;2023-10-19T02:18:55;98726.63;;;6.92;69.89
74561;BME280;62979;55.720;37.606;2023-10-19T02:21:21;98725.75;;;6.93;70.20
74561;BME280;62979;55.720;37.606;2023-10-19T02:23:52;98732.44;;;7.01;70.20
74561;BME280;62979;55.720;37.606;2023-10-19T02:26:20;98726.28;;;7.05;70.34
74561;BME280;62979;55.720;37.606;2023-10-19T02:28:49;98723.63;;;7.07;70.35
74561;BME280;62979;55.720;37.606;2023-10-19T02:31:17;98740.13;;;7.06;70.00
74561;BME280;62979;55.720;37.606;2023-10-19T02:33:46;98733.13;;;7.10;70.55
74561;BME280;62979;55.720;37.606;2023-10-19T02:36:17;98733.84;;;7.15;70.76
74561;BME280;62979;55.720;37.606;2023-10-19T02:38:44;98728.69;;;7.13;70.75
74561;BME280;62979;55.720;37.606;2023-10-19T02:41:16;98733.97;;;7.10;70.18
74561;BME280;62979;55.720;37.606;2023-10-19T02:43:46;98736.47;;;7.13;70.02
74561;BME280;62979;55.720;37.606;2023-10-19T02:46:17;98734.72;;;7.14;70.21
74561;BME280;62979;55.720;37.606;2023-10-19T02:48:44;98744.25;;;7.15;70.31
74561;BME280;62979;55.720;37.606;2023-10-19T02:51:11;98741.59;;;7.16;70.38
74561;BME280;62979;55.720;37.606;2023-10-19T02:53:39;98736.38;;;7.16;70.31
74561;BME280;62979;55.720;37.606;2023-10-19T02:56:12;98730.38;;;7.14;70.49
74561;BME280;62979;55.720;37.606;2023-10-19T02:58:43;98738.16;;;7.16;70.14
74561;BME280;62979;55.720;37.606;2023-10-19T03:01:15;98733.88;;;7.13;70.18
74561;BME280;62979;55.720;37.606;2023-10-19T03:03:48;98725.22;;;7.13;70.25
74561;BME280;62979;55.720;37.606;2023-10-19T03:06:18;98719.00;;;7.18;70.19
74561;BME280;62979;55.720;37.606;2023-10-19T03:08:45;98718.09;;;7.19;70.09
74561;BME280;62979;55.720;37.606;2023-10-19T03:11:13;98721.53;;;7.21;70.03
74561;BME280;62979;55.720;37.606;2023-10-19T03:13:40;98730.13;;;7.23;69.83
74561;BME280;62979;55.720;37.606;2023-10-19T03:16:09;98722.41;;;7.22;70.08
74561;BME280;62979;55.720;37.606;2023-10-19T03:18:36;98730.94;;;7.25;69.96
74561;BME280;62979;55.720;37.606;2023-10-19T03:21:04;98731.88;;;7.24;69.81
74561;BME280;62979;55.720;37.606;2023-10-19T03:23:31;98724.19;;;7.20;70.02
74561;BME280;62979;55.720;37.606;2023-10-19T03:26:00;98723.31;;;7.19;69.67
74561;BME280;62979;55.720;37.606;2023-10-19T03:28:49;98728.44;;;7.22;69.33
74561;BME280;62979;55.720;37.606;2023-10-19T03:31:21;98727.50;;;7.25;69.63
74561;BME280;62979;55.720;37.606;2023-10-19T03:33:49;98733.47;;;7.28;69.86
74561;BME280;62979;55.720;37.606;2023-10-19T03:36:20;98730.19;;;7.22;69.79
74561;BME280;62979;55.720;37.606;2023-10-19T03:38:48;98720.75;;;7.18;69.62
74561;BME280;62979;55.720;37.606;2023-10-19T03:41:16;98735.44;;;7.20;69.57
74561;BME280;62979;55.720;37.606;2023-10-19T03:43:47;98730.25;;;7.19;69.37
74561;BME280;62979;55.720;37.606;2023-10-19T03:46:17;98730.31;;;7.17;69.21
74561;BME280;62979;55.720;37.606;2023-10-19T03:48:56;98731.16;;;7.18;70.09
74561;BME280;62979;55.720;37.606;2023-10-19T03:51:29;98738.16;;;7.16;69.86
74561;BME280;62979;55.720;37.606;2023-10-19T03:54:05;98737.91;;;7.25;69.32
74561;BME280;62979;55.720;37.606;2023-10-19T03:56:45;98736.06;;;7.28;69.15
74561;BME280;62979;55.720;37.606;2023-10-19T03:59:13;98743.88;;;7.28;68.84
74561;BME280;62979;55.720;37.606;2023-10-19T04:01:41;98739.69;;;7.23;69.26
74561;BME280;62979;55.720;37.606;2023-10-19T04:04:10;98742.25;;;7.24;68.98
74561;BME280;62979;55.720;37.606;2023-10-19T04:06:37;98743.97;;;7.25;69.53
74561;BME280;62979;55.720;37.606;2023-10-19T04:09:04;98743.09;;;7.25;69.28
74561;BME280;62979;55.720;37.606;2023-10-19T04:11:31;98731.03;;;7.22;69.01
74561;BME280;62979;55.720;37.606;2023-10-19T04:14:13;98743.00;;;7.29;69.65
74561;BME280;62979;55.720;37.606;2023-10-19T04:16:40;98741.31;;;7.27;69.12
74561;BME280;62979;55.720;37.606;2023-10-19T04:19:10;98736.97;;;7.27;69.18
74561;BME280;62979;55.720;37.606;2023-10-19T04:21:37;98730.03;;;7.28;69.17
74561;BME280;62979;55.720;37.606;2023-10-19T04:24:05;98741.38;;;7.24;68.81
74561;BME280;62979;55.720;37.606;2023-10-19T04:26:33;98744.97;;;7.20;68.78
74561;BME280;62979;55.720;37.606;2023-10-19T04:29:02;98732.84;;;7.19;68.83
74561;BME280;62979;55.720;37.606;2023-10-19T04:31:35;98741.47;;;7.21;68.59
74561;BME280;62979;55.720;37.606;2023-10-19T04:34:06;98751.03;;;7.20;68.70
74561;BME280;62979;55.720;37.606;2023-10-19T04:36:35;98753.59;;;7.22;68.65
74561;BME280;62979;55.720;37.606;2023-10-19T04:39:02;98739.91;;;7.15;68.62
74561;BME280;62979;55.720;37.606;2023-10-19T04:41:29;98740.63;;;7.20;68.65
74561;BME280;62979;55.720;37.606;2023-10-19T04:43:56;98744.06;;;7.21;68.62
74561;BME280;62979;55.720;37.606;2023-10-19T04:46:23;98747.50;;;7.23;68.95
74561;BME280;62979;55.720;37.606;2023-10-19T04:48:51;98736.31;;;7.19;68.52
74561;BME280;62979;55.720;37.606;2023-10-19T04:51:18;98747.47;;;7.24;68.48
74561;BME280;62979;55.720;37.606;2023-10-19T04:53:46;98746.66;;;7.22;68.78
74561;BME280;62979;55.720;37.606;2023-10-19T04:56:12;98741.38;;;7.24;69.58
74561;BME280;62979;55.720;37.606;2023-10-19T04:58:39;98743.09;;;7.25;69.91
74561;BME280;62979;55.720;37.606;2023-10-19T05:01:06;98744.88;;;7.23;70.03
74561;BME280;62979;55.720;37.606;2023-10-19T05:03:37;98753.44;;;7.26;69.38
74561;BME280;62979;55.720;37.606;2023-10-19T05:06:04;98750.00;;;7.26;69.94
74561;BME280;62979;55.720;37.606;2023-10-19T05:08:31;98735.66;;;7.11;69.87
74561;BME280;62979;55.720;37.606;2023-10-19T05:10:59;98750.09;;;7.23;70.56
74561;BME280;62979;55.720;37.606;2023-10-19T05:13:26;98748.44;;;7.20;70.00
74561;BME280;62979;55.720;37.606;2023-10-19T05:15:54;98749.31;;;7.19;71.14
74561;BME280;62979;55.720;37.606;2023-10-19T05:18:22;98750.09;;;7.23;70.55
74561;BME280;62979;55.720;37.606;2023-10-19T05:20:49;98747.50;;;7.23;69.96
74561;BME280;62979;55.720;37.606;2023-10-19T05:23:21;98749.19;;;7.24;70.60
74561;BME280;62979;55.720;37.606;2023-10-19T05:25:49;98755.22;;;7.26;70.75
74561;BME280;62979;55.720;37.606;2023-10-19T05:28:19;98756.88;;;7.28;70.14
74561;BME280;62979;55.720;37.606;2023-10-19T05:30:47;98755.19;;;7.27;69.67
74561;BME280;62979;55.720;37.606;2023-10-19T05:33:15;98762.06;;;7.28;69.41
74561;BME280;62979;55.720;37.606;2023-10-19T05:35:46;98763.81;;;7.28;69.19
74561;BME280;62979;55.720;37.606;2023-10-19T05:38:13;98762.00;;;7.32;69.68
74561;BME280;62979;55.720;37.606;2023-10-19T05:40:40;98762.88;;;7.31;69.67
74561;BME280;62979;55.720;37.606;2023-10-19T05:43:08;98765.50;;;7.31;69.31
74561;BME280;62979;55.720;37.606;2023-10-19T05:45:37;98754.44;;;7.22;69.62
74561;BME280;62979;55.720;37.606;2023-10-19T05:48:04;98768.06;;;7.32;69.44
74561;BME280;62979;55.720;37.606;2023-10-19T05:50:32;98761.13;;;7.31;69.10
74561;BME280;62979;55.720;37.606;2023-10-19T05:53:00;98743.88;;;7.28;69.65
74561;BME280;62979;55.720;37.606;2023-10-19T05:55:27;98766.22;;;7.36;69.44
74561;BME280;62979;55.720;37.606;2023-10-19T05:57:54;98771.41;;;7.36;69.48
74561;BME280;62979;55.720;37.606;2023-10-19T06:00:21;98756.88;;;7.28;69.64
74561;BME280;62979;55.720;37.606;2023-10-19T06:02:52;98768.72;;;7.39;69.55
74561;BME280;62979;55.720;37.606;2023-10-19T06:05:19;98768.69;;;7.40;69.99
74561;BME280;62979;55.720;37.606;2023-10-19T06:07:47;98772.13;;;7.42;70.05
74561;BME280;62979;55.720;37.606;2023-10-19T06:10:17;98763.41;;;7.43;70.31
74561;BME280;62979;55.720;37.606;2023-10-19T06:12:46;98771.09;;;7.48;70.05
74561;BME280;62979;55.720;37.606;2023-10-19T06:15:16;98769.41;;;7.47;70.02
74561;BME280;62979;55.720;37.606;2023-10-19T06:17:44;98770.94;;;7.54;69.06
74561;BME280;62979;55.720;37.606;2023-10-19T06:20:14;98771.66;;;7.59;69.04
74561;BME280;62979;55.720;37.606;2023-10-19T06:22:52;98770.69;;;7.63;68.53
74561;BME280;62979;55.720;37.606;2023-10-19T06:25:22;98779.25;;;7.67;68.73
74561;BME280;62979;55.720;37.606;2023-10-19T06:27:51;98770.72;;;7.62;68.82
74561;BME280;62979;55.720;37.606;2023-10-19T06:30:19;98778.31;;;7.69;69.21
74561;BME280;62979;55.720;37.606;2023-10-19T06:32:49;98773.84;;;7.75;69.10
74561;BME280;62979;55.720;37.606;2023-10-19T06:35:19;98771.16;;;7.78;69.05
74561;BME280;62979;55.720;37.606;2023-10-19T06:37:47;98777.16;;;7.80;68.66
74561;BME280;62979;55.720;37.606;2023-10-19T06:40:15;98767.00;;;7.70;67.98
74561;BME280;62979;55.720;37.606;2023-10-19T06:42:43;98771.16;;;7.78;68.46
74561;BME280;62979;55.720;37.606;2023-10-19T06:45:11;98770.28;;;7.79;68.03
74561;BME280;62979;55.720;37.606;2023-10-19T06:47:40;98769.44;;;7.77;68.45
74561;BME280;62979;55.720;37.606;2023-10-19T06:50:08;98768.53;;;7.78;68.03
74561;BME280;62979;55.720;37.606;2023-10-19T06:52:37;98775.28;;;7.85;68.10
74561;BME280;62979;55.720;37.606;2023-10-19T06:55:07;98771.00;;;7.84;67.53
74561;BME280;62979;55.720;37.606;2023-10-19T06:57:39;98775.25;;;7.86;67.95
74561;BME280;62979;55.720;37.606;2023-10-19T07:00:09;98773.50;;;7.87;67.31
74561;BME280;62979;55.720;37.606;2023-10-19T07:02:40;98772.63;;;7.88;68.26
74561;BME280;62979;55.720;37.606;2023-10-19T07:05:08;98775.38;;;7.82;67.34
74561;BME280;62979;55.720;37.606;2023-10-19T07:07:39;98784.69;;;7.90;67.95
74561;BME280;62979;55.720;37.606;2023-10-19T07:10:07;98775.22;;;7.88;67.71
74561;BME280;62979;55.720;37.606;2023-10-19T07:12:37;98781.06;;;7.96;68.32
74561;BME280;62979;55.720;37.606;2023-10-19T07:15:06;98779.28;;;7.97;68.30
74561;BME280;62979;55.720;37.606;2023-10-19T07:17:34;98774.88;;;8.00;68.67
74561;BME280;62979;55.720;37.606;2023-10-19T07:20:04;98778.34;;;7.99;67.69
74561;BME280;62979;55.720;37.606;2023-10-19T07:22:32;98775.63;;;8.04;67.09
74561;BME280;62979;55.720;37.606;2023-10-19T07:25:01;98789.34;;;8.09;66.68
74561;BME280;62979;55.720;37.606;2023-10-19T07:27:31;98786.63;;;8.13;66.62
74561;BME280;62979;55.720;37.606;2023-10-19T07:29:59;98785.56;;;8.19;66.21
74561;BME280;62979;55.720;37.606;2023-10-19T07:32:26;98789.94;;;8.19;65.39
74561;BME280;62979;55.720;37.606;2023-10-19T07:34:53;98792.50;;;8.20;66.16
74561;BME280;62979;55.720;37.606;2023-10-19T07:37:21;98792.41;;;8.23;67.06
74561;BME280;62979;55.720;37.606;2023-10-19T07:39:48;98797.13;;;8.10;65.84
74561;BME280;62979;55.720;37.606;2023-10-19T07:42:18;98800.63;;;8.09;66.64
74561;BME280;62979;55.720;37.606;2023-10-19T07:44:46;98794.44;;;8.13;66.04
74561;BME280;62979;55.720;37.606;2023-10-19T07:47:14;98794.47;;;8.12;66.61
74561;BME280;62979;55.720;37.606;2023-10-19T07:49:41;98791.69;;;8.18;65.17
74561;BME280;62979;55.720;37.606;2023-10-19T07:52:09;98797.03;;;8.13;65.92
74561;BME280;62979;55.720;37.606;2023-10-19T07:54:36;98792.69;;;8.14;66.83
74561;BME280;62979;55.720;37.606;2023-10-19T07:57:04;98791.72;;;8.17;66.77
74561;BME280;62979;55.720;37.606;2023-10-19T07:59:33;98800.41;;;8.17;65.83
74561;BME280;62979;55.720;37.606;2023-10-19T08:02:01;98792.59;;;8.17;65.42
74561;BME280;62979;55.720;37.606;2023-10-19T08:04:29;98790.72;;;8.22;66.26
74561;BME280;62979;55.720;37.606;2023-10-19T08:06:57;98793.22;;;8.25;65.96
74561;BME280;62979;55.720;37.606;2023-10-19T08:09:24;98796.66;;;8.27;65.90
74561;BME280;62979;55.720;37.606;2023-10-19T08:11:57;98788.94;;;8.24;65.42
74561;BME280;62979;55.720;37.606;2023-10-19T08:14:24;98792.53;;;8.19;66.00
74561;BME280;62979;55.720;37.606;2023-10-19T08:16:53;98781.50;;;8.10;66.22
74561;BME280;62979;55.720;37.606;2023-10-19T08:19:22;98798.66;;;8.18;67.16
74561;BME280;62979;55.720;37.606;2023-10-19T08:21:49;98808.03;;;8.23;67.31
74561;BME280;62979;55.720;37.606;2023-10-19T08:24:15;98801.94;;;8.24;68.59
74561;BME280;62979;55.720;37.606;2023-10-19T08:26:44;98795.25;;;8.15;69.08
74561;BME280;62979;55.720;37.606;2023-10-19T08:29:11;98806.59;;;8.13;69.79
74561;BME280;62979;55.720;37.606;2023-10-19T08:31:39;98813.72;;;8.06;70.26
74561;BME280;62979;55.720;37.606;2023-10-19T08:34:08;98807.81;;;8.01;71.01
74561;BME280;62979;55.720;37.606;2023-10-19T08:36:36;98806.19;;;7.97;70.05
74561;BME280;62979;55.720;37.606;2023-10-19T08:39:04;98805.28;;;7.98;70.24
74561;BME280;62979;55.720;37.606;2023-10-19T08:41:32;98801.13;;;7.92;69.43
74561;BME280;62979;55.720;37.606;2023-10-19T08:44:00;98808.41;;;7.80;69.15
74561;BME280;62979;55.720;37.606;2023-10-19T08:46:28;98806.84;;;7.72;69.05
74561;BME280;62979;55.720;37.606;2023-10-19T08:48:55;98807.38;;;7.54;68.91
74561;BME280;62979;55.720;37.606;2023-10-19T08:51:25;98810.69;;;7.59;70.08
74561;BME280;62979;55.720;37.606;2023-10-19T08:53:54;98813.22;;;7.62;69.15
74561;BME280;62979;55.720;37.606;2023-10-19T08:56:22;98812.97;;;7.71;69.31
74561;BME280;62979;55.720;37.606;2023-10-19T08:58:50;98819.00;;;7.74;69.82
74561;BME280;62979;55.720;37.606;2023-10-19T09:01:18;98814.78;;;7.68;68.61
74561;BME280;62979;55.720;37.606;2023-10-19T09:03:50;98817.53;;;7.63;68.99
74561;BME280;62979;55.720;37.606;2023-10-19T09:06:17;98816.66;;;7.63;68.63
74561;BME280;62979;55.720;37.606;2023-10-19T09:08:48;98820.91;;;7.67;68.90
74561;BME280;62979;55.720;37.606;2023-10-19T09:11:15;98821.66;;;7.70;69.06
74561;BME280;62979;55.720;37.606;2023-10-19T09:13:46;98827.63;;;7.76;69.95
74561;BME280;62979;55.720;37.606;2023-10-19T09:16:17;98829.28;;;7.78;69.75
74561;BME280;62979;55.720;37.606;2023-10-19T09:18:45;98826.56;;;7.83;70.11
74561;BME280;62979;55.720;37.606;2023-10-19T09:21:15;98833.34;;;7.88;70.30
74561;BME280;62979;55.720;37.606;2023-10-19T09:23:51;98829.06;;;7.86;69.73
74561;BME280;62979;55.720;37.606;2023-10-19T09:26:18;98832.50;;;7.88;70.14
74561;BME280;62979;55.720;37.606;2023-10-19T09:28:47;98836.75;;;7.90;69.26
74561;BME280;62979;55.720;37.606;2023-10-19T09:31:16;98829.19;;;7.81;70.04
74561;BME280;62979;55.720;37.606;2023-10-19T09:33:44;98814.50;;;7.79;71.28
74561;BME280;62979;55.720;37.606;2023-10-19T09:36:13;98829.66;;;7.96;71.40
74561;BME280;62979;55.720;37.606;2023-10-19T09:38:45;98816.16;;;7.83;68.16
74561;BME280;62979;55.720;37.606;2023-10-19T09:41:17;98834.31;;;7.84;68.62
74561;BME280;62979;55.720;37.606;2023-10-19T09:43:46;98831.56;;;7.90;70.45
74561;BME280;62979;55.720;37.606;2023-10-19T09:46:21;98823.53;;;7.98;70.08
74561;BME280;62979;55.720;37.606;2023-10-19T09:48:49;98824.16;;;8.06;69.32
74561;BME280;62979;55.720;37.606;2023-10-19T09:51:18;98831.88;;;8.09;69.76
74561;BME280;62979;55.720;37.606;2023-10-19T09:53:49;98819.13;;;8.00;69.14
74561;BME280;62979;55.720;37.606;2023-10-19T09:56:26;98809.69;;;7.96;70.38
74561;BME280;62979;55.720;37.606;2023-10-19T09:59:04;98825.22;;;7.99;69.85
74561;BME280;62979;55.720;37.606;2023-10-19T10:04:38;98839.78;;;8.06;70.11
74561;BME280;62979;55.720;37.606;2023-10-19T10:07:06;98839.03;;;8.01;70.40
74561;BME280;62979;55.720;37.606;2023-10-19T10:09:35;98835.63;;;7.99;71.05
74561;BME280;62979;55.720;37.606;2023-10-19T10:12:21;98825.41;;;7.93;71.86
74561;BME280;62979;55.720;37.606;2023-10-19T10:14:59;98834.09;;;7.92;70.18
74561;BME280;62979;55.720;37.606;2023-10-19T10:17:29;98829.81;;;7.89;71.73
74561;BME280;62979;55.720;37.606;2023-10-19T10:20:30;98842.63;;;7.97;69.96
74561;BME280;62979;55.720;37.606;2023-10-19T10:23:19;98835.72;;;7.96;70.94
74561;BME280;62979;55.720;37.606;2023-10-19T10:25:52;98832.28;;;7.96;71.84
74561;BME280;62979;55.720;37.606;2023-10-19T10:28:21;98836.66;;;7.93;71.84
74561;BME280;62979;55.720;37.606;2023-10-19T10:31:14;98830.59;;;7.93;72.27
74561;BME280;62979;55.720;37.606;2023-10-19T10:33:46;98829.56;;;7.99;72.19
74561;BME280;62979;55.720;37.606;2023-10-19T10:36:15;98836.41;;;8.03;72.53
74561;BME280;62979;55.720;37.606;2023-10-19T10:38:44;98835.47;;;8.05;72.93
74561;BME280;62979;55.720;37.606;2023-10-19T10:41:11;98829.47;;;8.02;71.97
74561;BME280;62979;55.720;37.606;2023-10-19T10:43:50;98839.69;;;8.09;71.58
74561;BME280;62979;55.720;37.606;2023-10-19T10:46:24;98842.13;;;8.15;71.18
74561;BME280;62979;55.720;37.606;2023-10-19T10:48:52;98835.97;;;8.18;71.06
74561;BME280;62979;55.720;37.606;2023-10-19T10:51:21;98837.72;;;8.18;71.24
74561;BME280;62979;55.720;37.606;2023-10-19T10:53:50;98838.53;;;8.20;71.67
74561;BME280;62979;55.720;37.606;2023-10-19T10:56:19;98836.13;;;8.12;72.63
74561;BME280;62979;55.720;37.606;2023-10-19T10:58:49;98826.59;;;8.12;73.03
74561;BME280;62979;55.720;37.606;2023-10-19T11:01:27;98835.03;;;8.21;73.03
74561;BME280;62979;55.720;37.606;2023-10-19T11:04:05;98835.06;;;8.19;73.44
74561;BME280;62979;55.720;37.606;2023-10-19T11:06:33;98846.25;;;8.23;73.30
74561;BME280;62979;55.720;37.606;2023-10-19T11:09:11;98833.34;;;8.20;73.17
74561;BME280;62979;55.720;37.606;2023-10-19T11:11:43;98836.81;;;8.19;72.84
74561;BME280;62979;55.720;37.606;2023-10-19T11:14:12;98848.97;;;8.20;73.24
74561;BME280;62979;55.720;37.606;2023-10-19T11:16:39;98830.06;;;8.11;72.50
74561;BME280;62979;55.720;37.606;2023-10-19T11:19:06;98842.22;;;8.12;72.22
74561;BME280;62979;55.720;37.606;2023-10-19T11:21:32;98844.00;;;8.10;72.96
74561;BME280;62979;55.720;37.606;2023-10-19T11:23:59;98845.78;;;8.08;71.75
74561;BME280;62979;55.720;37.606;2023-10-19T11:26:27;98841.53;;;8.06;72.65
74561;BME280;62979;55.720;37.606;2023-10-19T11:28:57;98835.28;;;8.11;73.28
74561;BME280;62979;55.720;37.606;2023-10-19T11:31:27;98845.78;;;8.08;73.89
74561;BME280;62979;55.720;37.606;2023-10-19T11:34:03;98844.00;;;8.10;74.20
74561;BME280;62979;55.720;37.606;2023-10-19T11:36:30;98841.44;;;8.09;74.04
74561;BME280;62979;55.720;37.606;2023-10-19T11:38:58;98844.84;;;8.11;73.92
74561;BME280;62979;55.720;37.606;2023-10-19T11:41:24;98841.41;;;8.10;73.04
74561;BME280;62979;55.720;37.606;2023-10-19T11:43:51;98841.41;;;8.10;73.01
74561;BME280;62979;55.720;37.606;2023-10-19T11:46:18;98841.41;;;8.10;73.47
74561;BME280;62979;55.720;37.606;2023-10-19T11:48:49;98848.38;;;8.10;72.59
74561;BME280;62979;55.720;37.606;2023-10-19T11:51:16;98831.13;;;8.06;73.44
74561;BME280;62979;55.720;37.606;2023-10-19T11:53:43;98838.22;;;7.99;74.18
74561;BME280;62979;55.720;37.606;2023-10-19T11:56:11;98840.78;;;8.02;73.69
74561;BME280;62979;55.720;37.606;2023-10-19T11:58:41;98838.34;;;7.94;72.77
74561;BME280;62979;55.720;37.606;2023-10-19T12:01:10;98840.03;;;7.97;74.07
74561;BME280;62979;55.720;37.606;2023-10-19T12:03:38;98840.78;;;8.02;73.39
74561;BME280;62979;55.720;37.606;2023-10-19T12:06:07;98843.38;;;8.02;72.75
74561;BME280;62979;55.720;37.606;2023-10-19T12:08:36;98845.88;;;8.05;73.59
74561;BME280;62979;55.720;37.606;2023-10-19T12:11:05;98840.63;;;8.07;73.70
74561;BME280;62979;55.720;37.606;2023-10-19T12:13:40;98848.50;;;8.05;72.67
74561;BME280;62979;55.720;37.606;2023-10-19T12:16:08;98840.69;;;8.05;72.93
74561;BME280;62979;55.720;37.606;2023-10-19T12:18:37;98837.34;;;8.00;73.41
74561;BME280;62979;55.720;37.606;2023-10-19T12:21:04;98840.84;;;7.99;74.00
74561;BME280;62979;55.720;37.606;2023-10-19T12:23:36;98848.66;;;7.99;74.02
74561;BME280;62979;55.720;37.606;2023-10-19T12:26:04;98847.94;;;7.94;73.64
74561;BME280;62979;55.720;37.606;2023-10-19T12:28:36;98851.25;;;7.99;73.83
74561;BME280;62979;55.720;37.606;2023-10-19T12:31:04;98851.13;;;8.04;73.68
74561;BME280;62979;55.720;37.606;2023-10-19T12:33:34;98841.53;;;8.06;73.39
74561;BME280;62979;55.720;37.606;2023-10-19T12:36:01;98854.44;;;8.10;73.06
74561;BME280;62979;55.720;37.606;2023-10-19T12:38:46;98853.63;;;8.07;73.01
74561;BME280;62979;55.720;37.606;2023-10-19T12:41:12;98853.81;;;8.01;71.58
74561;BME280;62979;55.720;37.606;2023-10-19T12:43:39;98846.94;;;7.98;71.69
74561;BME280;62979;55.720;37.606;2023-10-19T12:46:07;98853.03;;;7.97;71.25
74561;BME280;62979;55.720;37.606;2023-10-19T12:48:34;98858.25;;;7.97;71.85
74561;BME280;62979;55.720;37.606;2023-10-19T12:51:01;98852.19;;;7.97;73.13
74561;BME280;62979;55.720;37.606;2023-10-19T12:53:28;98843.56;;;7.94;73.41
74561;BME280;62979;55.720;37.606;2023-10-19T12:55:57;98849.56;;;7.98;72.88
74561;BME280;62979;55.720;37.606;2023-10-19T12:58:24;98851.25;;;7.99;72.42
74561;BME280;62979;55.720;37.606;2023-10-19T13:00:53;98856.44;;;8.01;71.67
74561;BME280;62979;55.720;37.606;2023-10-19T13:03:21;98845.97;;;8.02;71.80
74561;BME280;62979;55.720;37.606;2023-10-19T13:05:49;98848.44;;;8.07;71.82
74561;BME280;62979;55.720;37.606;2023-10-19T13:08:16;98858.00;;;8.06;71.39
74561;BME280;62979;55.720;37.606;2023-10-19T13:10:45;98852.88;;;8.03;71.25
74561;BME280;62979;55.720;37.606;2023-10-19T13:13:15;98854.50;;;8.07;72.29
74561;BME280;62979;55.720;37.606;2023-10-19T13:15:43;98851.00;;;8.08;72.79